sensor_id;sensor_type;location;lat;lon;timestamp;P1;durP1;ratioP1;P2;durP2;ratioP2
76566;SDS011;65428;53.194;6.132;2023-08-06T00:00:04;37.80;;;25.63;;
76566;SDS011;65428;53.194;6.132;2023-08-06T00:02:30;39.38;;;27.40;;
76566;SDS011;65428;53.194;6.132;2023-08-06T00:04:55;35.55;;;25.65;;
76566;SDS011;65428;53.194;6.132;2023-08-06T00:07:21;31.57;;;24.23;;
76566;SDS011;65428;53.194;6.132;2023-08-06T00:09:47;35.38;;;25.38;;
76566;SDS011;65428;53.194;6.132;2023-08-06T00:12:12;44.60;;;29.23;;
76566;SDS011;65428;53.194;6.132;2023-08-06T00:14:38;41.25;;;27.15;;
76566;SDS011;65428;53.194;6.132;2023-08-06T00:17:03;38.73;;;27.07;;
76566;SDS011;65428;53.194;6.132;2023-08-06T00:19:30;38.65;;;27.33;;
76566;SDS011;65428;53.194;6.132;2023-08-06T00:21:56;35.13;;;25.80;;
76566;SDS011;65428;53.194;6.132;2023-08-06T00:24:22;40.92;;;27.30;;
76566;SDS011;65428;53.194;6.132;2023-08-06T00:26:47;35.80;;;26.27;;
76566;SDS011;65428;53.194;6.132;2023-08-06T00:29:13;35.58;;;25.92;;
76566;SDS011;65428;53.194;6.132;2023-08-06T00:31:39;38.97;;;26.33;;
76566;SDS011;65428;53.194;6.132;2023-08-06T00:34:04;35.42;;;26.08;;
76566;SDS011;65428;53.194;6.132;2023-08-06T00:36:30;32.40;;;24.67;;
76566;SDS011;65428;53.194;6.132;2023-08-06T00:38:55;33.10;;;25.00;;
76566;SDS011;65428;53.194;6.132;2023-08-06T00:41:21;34.10;;;25.60;;
76566;SDS011;65428;53.194;6.132;2023-08-06T00:43:47;33.92;;;25.52;;
76566;SDS011;65428;53.194;6.132;2023-08-06T00:46:12;37.33;;;26.47;;
76566;SDS011;65428;53.194;6.132;2023-08-06T00:48:39;33.28;;;24.73;;
76566;SDS011;65428;53.194;6.132;2023-08-06T00:51:06;37.83;;;26.23;;
76566;SDS011;65428;53.194;6.132;2023-08-06T00:53:31;46.38;;;30.48;;
76566;SDS011;65428;53.194;6.132;2023-08-06T00:55:57;41.67;;;27.60;;
76566;SDS011;65428;53.194;6.132;2023-08-06T00:58:23;37.75;;;26.27;;
76566;SDS011;65428;53.194;6.132;2023-08-06T01:00:49;44.15;;;28.70;;
76566;SDS011;65428;53.194;6.132;2023-08-06T01:03:15;38.30;;;26.40;;
76566;SDS011;65428;53.194;6.132;2023-08-06T01:05:41;43.50;;;28.02;;
76566;SDS011;65428;53.194;6.132;2023-08-06T01:08:21;50.87;;;31.53;;
76566;SDS011;65428;53.194;6.132;2023-08-06T01:16:01;38.38;;;27.02;;
76566;SDS011;65428;53.194;6.132;2023-08-06T01:18:28;41.33;;;28.02;;
76566;SDS011;65428;53.194;6.132;2023-08-06T01:20:54;45.03;;;29.23;;
76566;SDS011;65428;53.194;6.132;2023-08-06T01:23:19;43.60;;;28.58;;
76566;SDS011;65428;53.194;6.132;2023-08-06T01:25:49;45.03;;;28.83;;
76566;SDS011;65428;53.194;6.132;2023-08-06T01:28:30;42.15;;;28.33;;
76566;SDS011;65428;53.194;6.132;2023-08-06T01:31:02;44.90;;;29.90;;
76566;SDS011;65428;53.194;6.132;2023-08-06T01:33:32;48.20;;;31.73;;
76566;SDS011;65428;53.194;6.132;2023-08-06T01:35:59;49.72;;;30.45;;
76566;SDS011;65428;53.194;6.132;2023-08-06T01:38:26;45.58;;;29.08;;
76566;SDS011;65428;53.194;6.132;2023-08-06T01:40:53;58.90;;;31.70;;
76566;SDS011;65428;53.194;6.132;2023-08-06T01:43:19;56.70;;;32.80;;
76566;SDS011;65428;53.194;6.132;2023-08-06T01:45:44;48.53;;;29.85;;
76566;SDS011;65428;53.194;6.132;2023-08-06T01:48:10;53.43;;;31.17;;
76566;SDS011;65428;53.194;6.132;2023-08-06T01:50:35;49.83;;;28.15;;
76566;SDS011;65428;53.194;6.132;2023-08-06T01:53:01;57.77;;;31.93;;
76566;SDS011;65428;53.194;6.132;2023-08-06T01:55:28;50.63;;;29.83;;
76566;SDS011;65428;53.194;6.132;2023-08-06T01:57:54;84.27;;;37.17;;
76566;SDS011;65428;53.194;6.132;2023-08-06T02:00:20;84.25;;;38.22;;
76566;SDS011;65428;53.194;6.132;2023-08-06T02:02:45;93.20;;;39.23;;
76566;SDS011;65428;53.194;6.132;2023-08-06T02:05:11;83.78;;;38.13;;
76566;SDS011;65428;53.194;6.132;2023-08-06T02:07:37;76.20;;;36.50;;
76566;SDS011;65428;53.194;6.132;2023-08-06T02:10:02;61.28;;;33.53;;
76566;SDS011;65428;53.194;6.132;2023-08-06T02:12:28;62.83;;;32.38;;
76566;SDS011;65428;53.194;6.132;2023-08-06T02:14:54;62.73;;;33.33;;
76566;SDS011;65428;53.194;6.132;2023-08-06T02:17:19;52.38;;;31.08;;
76566;SDS011;65428;53.194;6.132;2023-08-06T02:19:45;49.43;;;29.33;;
76566;SDS011;65428;53.194;6.132;2023-08-06T02:22:10;42.45;;;29.00;;
76566;SDS011;65428;53.194;6.132;2023-08-06T02:24:36;59.57;;;34.30;;
76566;SDS011;65428;53.194;6.132;2023-08-06T02:27:02;47.67;;;30.15;;
76566;SDS011;65428;53.194;6.132;2023-08-06T02:29:27;64.60;;;34.73;;
76566;SDS011;65428;53.194;6.132;2023-08-06T02:31:53;58.75;;;32.78;;
76566;SDS011;65428;53.194;6.132;2023-08-06T02:34:19;54.60;;;33.13;;
76566;SDS011;65428;53.194;6.132;2023-08-06T02:36:44;62.78;;;34.55;;
76566;SDS011;65428;53.194;6.132;2023-08-06T02:39:10;53.03;;;32.40;;
76566;SDS011;65428;53.194;6.132;2023-08-06T02:41:35;52.15;;;30.58;;
76566;SDS011;65428;53.194;6.132;2023-08-06T02:44:01;53.83;;;31.17;;
76566;SDS011;65428;53.194;6.132;2023-08-06T02:46:27;75.18;;;36.90;;
76566;SDS011;65428;53.194;6.132;2023-08-06T02:48:52;58.70;;;32.42;;
76566;SDS011;65428;53.194;6.132;2023-08-06T02:51:18;65.20;;;34.37;;
76566;SDS011;65428;53.194;6.132;2023-08-06T02:53:43;56.85;;;32.03;;
76566;SDS011;65428;53.194;6.132;2023-08-06T02:56:09;56.70;;;33.10;;
76566;SDS011;65428;53.194;6.132;2023-08-06T02:58:35;61.35;;;34.72;;
76566;SDS011;65428;53.194;6.132;2023-08-06T03:01:04;55.90;;;32.07;;
76566;SDS011;65428;53.194;6.132;2023-08-06T03:03:32;63.65;;;33.97;;
76566;SDS011;65428;53.194;6.132;2023-08-06T03:05:58;52.92;;;30.70;;
76566;SDS011;65428;53.194;6.132;2023-08-06T03:08:23;62.13;;;34.50;;
76566;SDS011;65428;53.194;6.132;2023-08-06T03:10:50;69.88;;;35.03;;
76566;SDS011;65428;53.194;6.132;2023-08-06T03:13:18;47.65;;;30.67;;
76566;SDS011;65428;53.194;6.132;2023-08-06T03:18:24;64.93;;;35.53;;
76566;SDS011;65428;53.194;6.132;2023-08-06T03:20:51;63.85;;;35.55;;
76566;SDS011;65428;53.194;6.132;2023-08-06T03:23:16;56.83;;;33.73;;
76566;SDS011;65428;53.194;6.132;2023-08-06T03:25:42;63.10;;;35.97;;
76566;SDS011;65428;53.194;6.132;2023-08-06T03:28:08;69.03;;;36.42;;
76566;SDS011;65428;53.194;6.132;2023-08-06T03:30:34;57.03;;;33.97;;
76566;SDS011;65428;53.194;6.132;2023-08-06T03:33:00;67.30;;;37.77;;
76566;SDS011;65428;53.194;6.132;2023-08-06T03:35:25;73.50;;;38.97;;
76566;SDS011;65428;53.194;6.132;2023-08-06T03:37:51;80.03;;;40.20;;
76566;SDS011;65428;53.194;6.132;2023-08-06T03:40:17;65.15;;;37.17;;
76566;SDS011;65428;53.194;6.132;2023-08-06T03:42:42;73.88;;;38.67;;
76566;SDS011;65428;53.194;6.132;2023-08-06T03:45:08;68.47;;;37.53;;
76566;SDS011;65428;53.194;6.132;2023-08-06T03:47:34;66.65;;;37.08;;
76566;SDS011;65428;53.194;6.132;2023-08-06T03:50:00;74.55;;;40.35;;
76566;SDS011;65428;53.194;6.132;2023-08-06T03:52:25;72.03;;;38.03;;
76566;SDS011;65428;53.194;6.132;2023-08-06T03:54:51;63.65;;;36.83;;
76566;SDS011;65428;53.194;6.132;2023-08-06T03:57:17;72.33;;;38.03;;
76566;SDS011;65428;53.194;6.132;2023-08-06T03:59:43;67.40;;;37.83;;
76566;SDS011;65428;53.194;6.132;2023-08-06T04:02:08;70.33;;;38.30;;
76566;SDS011;65428;53.194;6.132;2023-08-06T04:04:34;78.20;;;39.45;;
76566;SDS011;65428;53.194;6.132;2023-08-06T04:07:00;55.83;;;33.80;;
76566;SDS011;65428;53.194;6.132;2023-08-06T04:09:27;64.28;;;36.63;;
76566;SDS011;65428;53.194;6.132;2023-08-06T04:11:53;71.40;;;38.97;;
76566;SDS011;65428;53.194;6.132;2023-08-06T04:14:19;78.33;;;39.80;;
76566;SDS011;65428;53.194;6.132;2023-08-06T04:16:45;64.03;;;36.40;;
76566;SDS011;65428;53.194;6.132;2023-08-06T04:19:10;112.73;;;45.73;;
76566;SDS011;65428;53.194;6.132;2023-08-06T04:21:36;82.28;;;39.78;;
76566;SDS011;65428;53.194;6.132;2023-08-06T04:24:01;90.67;;;41.40;;
76566;SDS011;65428;53.194;6.132;2023-08-06T04:26:27;156.30;;;49.80;;
76566;SDS011;65428;53.194;6.132;2023-08-06T04:28:53;80.90;;;38.23;;
76566;SDS011;65428;53.194;6.132;2023-08-06T04:31:18;73.03;;;38.22;;
76566;SDS011;65428;53.194;6.132;2023-08-06T04:33:44;80.83;;;40.80;;
76566;SDS011;65428;53.194;6.132;2023-08-06T04:36:10;101.60;;;42.25;;
76566;SDS011;65428;53.194;6.132;2023-08-06T04:38:35;121.27;;;45.27;;
76566;SDS011;65428;53.194;6.132;2023-08-06T04:41:04;139.55;;;47.97;;
76566;SDS011;65428;53.194;6.132;2023-08-06T04:43:29;80.60;;;39.13;;
76566;SDS011;65428;53.194;6.132;2023-08-06T04:45:55;59.60;;;35.43;;
76566;SDS011;65428;53.194;6.132;2023-08-06T04:48:21;64.38;;;37.45;;
76566;SDS011;65428;53.194;6.132;2023-08-06T04:50:48;69.93;;;38.15;;
76566;SDS011;65428;53.194;6.132;2023-08-06T04:53:15;78.40;;;40.35;;
76566;SDS011;65428;53.194;6.132;2023-08-06T04:55:41;82.00;;;40.88;;
76566;SDS011;65428;53.194;6.132;2023-08-06T04:58:07;115.55;;;44.47;;
76566;SDS011;65428;53.194;6.132;2023-08-06T05:00:33;105.47;;;42.55;;
76566;SDS011;65428;53.194;6.132;2023-08-06T05:02:59;141.30;;;49.83;;
76566;SDS011;65428;53.194;6.132;2023-08-06T05:05:26;68.15;;;37.45;;
76566;SDS011;65428;53.194;6.132;2023-08-06T05:07:53;100.07;;;42.78;;
76566;SDS011;65428;53.194;6.132;2023-08-06T05:10:20;92.05;;;41.25;;
76566;SDS011;65428;53.194;6.132;2023-08-06T05:12:46;77.70;;;38.50;;
76566;SDS011;65428;53.194;6.132;2023-08-06T05:15:11;67.32;;;37.38;;
76566;SDS011;65428;53.194;6.132;2023-08-06T05:17:37;68.20;;;37.20;;
76566;SDS011;65428;53.194;6.132;2023-08-06T05:20:03;79.47;;;39.07;;
76566;SDS011;65428;53.194;6.132;2023-08-06T05:22:29;108.18;;;42.22;;
76566;SDS011;65428;53.194;6.132;2023-08-06T05:24:54;74.65;;;39.50;;
76566;SDS011;65428;53.194;6.132;2023-08-06T05:27:20;65.33;;;36.27;;
76566;SDS011;65428;53.194;6.132;2023-08-06T05:29:48;76.70;;;37.03;;
76566;SDS011;65428;53.194;6.132;2023-08-06T05:32:14;77.00;;;38.88;;
76566;SDS011;65428;53.194;6.132;2023-08-06T05:34:39;114.87;;;44.20;;
76566;SDS011;65428;53.194;6.132;2023-08-06T05:37:06;68.75;;;36.30;;
76566;SDS011;65428;53.194;6.132;2023-08-06T05:39:32;79.35;;;38.33;;
76566;SDS011;65428;53.194;6.132;2023-08-06T05:41:57;78.17;;;38.17;;
76566;SDS011;65428;53.194;6.132;2023-08-06T05:44:23;70.80;;;37.45;;
76566;SDS011;65428;53.194;6.132;2023-08-06T05:46:49;71.65;;;37.42;;
76566;SDS011;65428;53.194;6.132;2023-08-06T05:49:15;95.53;;;40.00;;
76566;SDS011;65428;53.194;6.132;2023-08-06T05:51:41;61.45;;;36.05;;
76566;SDS011;65428;53.194;6.132;2023-08-06T05:54:07;74.63;;;38.53;;
76566;SDS011;65428;53.194;6.132;2023-08-06T05:56:33;54.90;;;35.78;;
76566;SDS011;65428;53.194;6.132;2023-08-06T05:58:58;43.53;;;31.87;;
76566;SDS011;65428;53.194;6.132;2023-08-06T06:01:24;62.33;;;37.20;;
76566;SDS011;65428;53.194;6.132;2023-08-06T06:03:49;39.93;;;29.43;;
76566;SDS011;65428;53.194;6.132;2023-08-06T06:06:15;26.13;;;23.08;;
76566;SDS011;65428;53.194;6.132;2023-08-06T06:08:41;26.10;;;23.30;;
76566;SDS011;65428;53.194;6.132;2023-08-06T06:11:07;33.37;;;27.73;;
76566;SDS011;65428;53.194;6.132;2023-08-06T06:13:32;26.60;;;23.67;;
76566;SDS011;65428;53.194;6.132;2023-08-06T06:15:58;23.83;;;21.40;;
76566;SDS011;65428;53.194;6.132;2023-08-06T06:18:24;24.57;;;21.90;;
76566;SDS011;65428;53.194;6.132;2023-08-06T06:20:49;25.30;;;22.70;;
76566;SDS011;65428;53.194;6.132;2023-08-06T06:23:15;23.90;;;21.50;;
76566;SDS011;65428;53.194;6.132;2023-08-06T06:25:47;25.33;;;22.63;;
76566;SDS011;65428;53.194;6.132;2023-08-06T06:28:14;24.40;;;21.52;;
76566;SDS011;65428;53.194;6.132;2023-08-06T06:30:40;24.37;;;21.87;;
76566;SDS011;65428;53.194;6.132;2023-08-06T06:33:07;26.00;;;22.60;;
76566;SDS011;65428;53.194;6.132;2023-08-06T06:35:33;21.50;;;19.42;;
76566;SDS011;65428;53.194;6.132;2023-08-06T06:38:01;24.00;;;21.48;;
76566;SDS011;65428;53.194;6.132;2023-08-06T06:40:27;20.80;;;18.67;;
76566;SDS011;65428;53.194;6.132;2023-08-06T06:42:53;20.53;;;18.40;;
76566;SDS011;65428;53.194;6.132;2023-08-06T06:45:19;21.27;;;19.00;;
76566;SDS011;65428;53.194;6.132;2023-08-06T06:47:44;22.83;;;20.53;;
76566;SDS011;65428;53.194;6.132;2023-08-06T06:50:10;24.10;;;20.50;;
76566;SDS011;65428;53.194;6.132;2023-08-06T06:52:36;22.60;;;20.27;;
76566;SDS011;65428;53.194;6.132;2023-08-06T06:55:02;19.10;;;17.30;;
76566;SDS011;65428;53.194;6.132;2023-08-06T06:57:28;19.30;;;17.40;;
76566;SDS011;65428;53.194;6.132;2023-08-06T06:59:54;18.67;;;16.83;;
76566;SDS011;65428;53.194;6.132;2023-08-06T07:02:20;18.05;;;16.38;;
76566;SDS011;65428;53.194;6.132;2023-08-06T07:04:45;19.75;;;17.92;;
76566;SDS011;65428;53.194;6.132;2023-08-06T07:07:11;19.00;;;17.30;;
76566;SDS011;65428;53.194;6.132;2023-08-06T07:09:37;24.02;;;21.42;;
76566;SDS011;65428;53.194;6.132;2023-08-06T07:12:03;17.00;;;15.30;;
76566;SDS011;65428;53.194;6.132;2023-08-06T07:14:29;19.70;;;17.48;;
76566;SDS011;65428;53.194;6.132;2023-08-06T07:16:54;20.90;;;18.98;;
76566;SDS011;65428;53.194;6.132;2023-08-06T07:19:20;19.07;;;17.37;;
76566;SDS011;65428;53.194;6.132;2023-08-06T07:21:46;21.25;;;19.23;;
76566;SDS011;65428;53.194;6.132;2023-08-06T07:24:11;19.67;;;17.87;;
76566;SDS011;65428;53.194;6.132;2023-08-06T07:26:37;16.15;;;14.75;;
76566;SDS011;65428;53.194;6.132;2023-08-06T07:29:03;18.58;;;16.77;;
76566;SDS011;65428;53.194;6.132;2023-08-06T07:31:29;19.23;;;17.33;;
76566;SDS011;65428;53.194;6.132;2023-08-06T07:33:54;15.68;;;14.18;;
76566;SDS011;65428;53.194;6.132;2023-08-06T07:36:20;14.93;;;13.60;;
76566;SDS011;65428;53.194;6.132;2023-08-06T07:38:46;16.23;;;14.63;;
76566;SDS011;65428;53.194;6.132;2023-08-06T07:41:13;16.10;;;14.63;;
76566;SDS011;65428;53.194;6.132;2023-08-06T07:43:39;15.67;;;14.17;;
76566;SDS011;65428;53.194;6.132;2023-08-06T07:46:04;12.97;;;11.87;;
76566;SDS011;65428;53.194;6.132;2023-08-06T07:48:30;13.68;;;12.38;;
76566;SDS011;65428;53.194;6.132;2023-08-06T07:50:56;14.93;;;13.52;;
76566;SDS011;65428;53.194;6.132;2023-08-06T07:53:22;11.57;;;10.55;;
76566;SDS011;65428;53.194;6.132;2023-08-06T07:55:52;11.15;;;10.15;;
76566;SDS011;65428;53.194;6.132;2023-08-06T07:58:19;10.10;;;9.30;;
76566;SDS011;65428;53.194;6.132;2023-08-06T08:00:45;11.88;;;10.77;;
76566;SDS011;65428;53.194;6.132;2023-08-06T08:03:12;10.35;;;9.35;;
76566;SDS011;65428;53.194;6.132;2023-08-06T08:05:41;11.10;;;10.10;;
76566;SDS011;65428;53.194;6.132;2023-08-06T08:08:07;8.07;;;7.45;;
76566;SDS011;65428;53.194;6.132;2023-08-06T08:10:33;7.50;;;6.80;;
76566;SDS011;65428;53.194;6.132;2023-08-06T08:13:00;6.80;;;6.10;;
76566;SDS011;65428;53.194;6.132;2023-08-06T08:15:27;6.78;;;6.18;;
76566;SDS011;65428;53.194;6.132;2023-08-06T08:17:54;6.00;;;5.50;;
76566;SDS011;65428;53.194;6.132;2023-08-06T08:20:20;6.70;;;6.10;;
76566;SDS011;65428;53.194;6.132;2023-08-06T08:22:46;7.05;;;6.47;;
76566;SDS011;65428;53.194;6.132;2023-08-06T08:25:12;4.57;;;4.18;;
76566;SDS011;65428;53.194;6.132;2023-08-06T08:27:37;5.40;;;4.90;;
76566;SDS011;65428;53.194;6.132;2023-08-06T08:30:03;5.33;;;4.83;;
76566;SDS011;65428;53.194;6.132;2023-08-06T08:32:30;6.60;;;6.00;;
76566;SDS011;65428;53.194;6.132;2023-08-06T08:34:56;5.90;;;5.40;;
76566;SDS011;65428;53.194;6.132;2023-08-06T08:37:22;5.95;;;5.35;;
76566;SDS011;65428;53.194;6.132;2023-08-06T08:39:48;5.82;;;5.32;;
76566;SDS011;65428;53.194;6.132;2023-08-06T08:42:14;4.60;;;4.10;;
76566;SDS011;65428;53.194;6.132;2023-08-06T08:44:41;4.70;;;4.30;;
76566;SDS011;65428;53.194;6.132;2023-08-06T08:47:08;6.20;;;4.70;;
76566;SDS011;65428;53.194;6.132;2023-08-06T08:49:35;5.63;;;4.57;;
76566;SDS011;65428;53.194;6.132;2023-08-06T08:52:02;5.65;;;5.10;;
76566;SDS011;65428;53.194;6.132;2023-08-06T08:54:31;7.70;;;6.90;;
76566;SDS011;65428;53.194;6.132;2023-08-06T08:56:58;7.03;;;6.32;;
76566;SDS011;65428;53.194;6.132;2023-08-06T08:59:24;6.88;;;6.28;;
76566;SDS011;65428;53.194;6.132;2023-08-06T09:01:49;5.60;;;5.03;;
76566;SDS011;65428;53.194;6.132;2023-08-06T09:04:16;5.73;;;5.10;;
76566;SDS011;65428;53.194;6.132;2023-08-06T09:06:46;5.55;;;5.05;;
76566;SDS011;65428;53.194;6.132;2023-08-06T09:09:28;5.55;;;4.82;;
76566;SDS011;65428;53.194;6.132;2023-08-06T09:12:00;5.13;;;4.50;;
76566;SDS011;65428;53.194;6.132;2023-08-06T09:14:27;4.38;;;3.97;;
76566;SDS011;65428;53.194;6.132;2023-08-06T09:16:53;4.60;;;4.20;;
76566;SDS011;65428;53.194;6.132;2023-08-06T09:19:19;3.60;;;3.10;;
76566;SDS011;65428;53.194;6.132;2023-08-06T09:21:45;4.25;;;2.42;;
76566;SDS011;65428;53.194;6.132;2023-08-06T09:24:14;3.22;;;1.88;;
76566;SDS011;65428;53.194;6.132;2023-08-06T09:26:41;3.08;;;1.80;;
76566;SDS011;65428;53.194;6.132;2023-08-06T09:29:08;2.67;;;1.48;;
76566;SDS011;65428;53.194;6.132;2023-08-06T09:31:41;2.42;;;1.40;;
76566;SDS011;65428;53.194;6.132;2023-08-06T09:34:17;2.45;;;1.65;;
76566;SDS011;65428;53.194;6.132;2023-08-06T09:36:53;2.15;;;1.20;;
76566;SDS011;65428;53.194;6.132;2023-08-06T09:39:19;3.13;;;1.50;;
76566;SDS011;65428;53.194;6.132;2023-08-06T09:41:55;2.25;;;1.50;;
76566;SDS011;65428;53.194;6.132;2023-08-06T09:44:26;2.20;;;1.30;;
76566;SDS011;65428;53.194;6.132;2023-08-06T09:46:57;2.20;;;1.40;;
76566;SDS011;65428;53.194;6.132;2023-08-06T09:51:59;3.90;;;2.00;;
76566;SDS011;65428;53.194;6.132;2023-08-06T09:54:28;2.60;;;1.80;;
76566;SDS011;65428;53.194;6.132;2023-08-06T09:56:55;3.10;;;2.25;;
76566;SDS011;65428;53.194;6.132;2023-08-06T09:59:25;2.15;;;1.23;;
76566;SDS011;65428;53.194;6.132;2023-08-06T10:01:50;3.05;;;1.30;;
76566;SDS011;65428;53.194;6.132;2023-08-06T10:04:16;7.40;;;1.40;;
76566;SDS011;65428;53.194;6.132;2023-08-06T10:06:43;2.42;;;1.17;;
76566;SDS011;65428;53.194;6.132;2023-08-06T10:09:12;2.13;;;1.20;;
76566;SDS011;65428;53.194;6.132;2023-08-06T10:11:38;3.65;;;1.27;;
76566;SDS011;65428;53.194;6.132;2023-08-06T10:14:11;2.63;;;1.00;;
76566;SDS011;65428;53.194;6.132;2023-08-06T10:16:41;2.28;;;0.90;;
76566;SDS011;65428;53.194;6.132;2023-08-06T10:19:08;2.55;;;0.98;;
76566;SDS011;65428;53.194;6.132;2023-08-06T10:21:35;2.10;;;0.82;;
76566;SDS011;65428;53.194;6.132;2023-08-06T10:24:02;1.90;;;1.05;;
76566;SDS011;65428;53.194;6.132;2023-08-06T10:26:34;2.97;;;1.00;;
76566;SDS011;65428;53.194;6.132;2023-08-06T10:29:00;2.38;;;1.00;;
76566;SDS011;65428;53.194;6.132;2023-08-06T10:34:20;1.80;;;0.68;;
76566;SDS011;65428;53.194;6.132;2023-08-06T10:36:46;1.80;;;0.80;;
76566;SDS011;65428;53.194;6.132;2023-08-06T10:39:15;1.95;;;0.80;;
76566;SDS011;65428;53.194;6.132;2023-08-06T10:41:42;2.10;;;1.00;;
76566;SDS011;65428;53.194;6.132;2023-08-06T10:44:09;2.78;;;1.02;;
76566;SDS011;65428;53.194;6.132;2023-08-06T10:46:36;2.78;;;1.13;;
76566;SDS011;65428;53.194;6.132;2023-08-06T10:49:03;1.60;;;0.95;;
76566;SDS011;65428;53.194;6.132;2023-08-06T10:51:29;3.17;;;1.20;;
76566;SDS011;65428;53.194;6.132;2023-08-06T10:53:55;2.55;;;1.30;;
76566;SDS011;65428;53.194;6.132;2023-08-06T10:56:23;2.92;;;1.50;;
76566;SDS011;65428;53.194;6.132;2023-08-06T10:58:56;1.90;;;1.10;;
76566;SDS011;65428;53.194;6.132;2023-08-06T11:01:22;2.92;;;1.25;;
76566;SDS011;65428;53.194;6.132;2023-08-06T11:03:48;4.30;;;0.93;;
76566;SDS011;65428;53.194;6.132;2023-08-06T11:06:22;1.88;;;0.95;;
76566;SDS011;65428;53.194;6.132;2023-08-06T11:08:52;2.53;;;1.20;;
76566;SDS011;65428;53.194;6.132;2023-08-06T11:11:19;2.05;;;1.30;;
76566;SDS011;65428;53.194;6.132;2023-08-06T11:13:46;2.38;;;1.00;;
76566;SDS011;65428;53.194;6.132;2023-08-06T11:16:14;3.55;;;1.40;;
76566;SDS011;65428;53.194;6.132;2023-08-06T11:18:44;3.17;;;1.48;;
76566;SDS011;65428;53.194;6.132;2023-08-06T11:21:10;4.32;;;1.63;;
76566;SDS011;65428;53.194;6.132;2023-08-06T11:23:39;3.53;;;1.58;;
76566;SDS011;65428;53.194;6.132;2023-08-06T11:26:05;2.25;;;1.60;;
76566;SDS011;65428;53.194;6.132;2023-08-06T11:28:32;2.53;;;1.52;;
76566;SDS011;65428;53.194;6.132;2023-08-06T11:30:58;3.33;;;1.65;;
76566;SDS011;65428;53.194;6.132;2023-08-06T11:33:27;1.92;;;1.50;;
76566;SDS011;65428;53.194;6.132;2023-08-06T11:35:57;3.22;;;1.40;;
76566;SDS011;65428;53.194;6.132;2023-08-06T11:38:27;3.05;;;1.27;;
76566;SDS011;65428;53.194;6.132;2023-08-06T11:40:53;2.60;;;1.17;;
76566;SDS011;65428;53.194;6.132;2023-08-06T11:43:20;4.10;;;1.58;;
76566;SDS011;65428;53.194;6.132;2023-08-06T11:45:47;2.95;;;1.10;;
76566;SDS011;65428;53.194;6.132;2023-08-06T11:48:13;2.75;;;1.40;;
76566;SDS011;65428;53.194;6.132;2023-08-06T11:50:39;3.10;;;1.30;;
76566;SDS011;65428;53.194;6.132;2023-08-06T11:53:05;2.43;;;1.17;;
76566;SDS011;65428;53.194;6.132;2023-08-06T11:55:31;3.60;;;1.40;;
76566;SDS011;65428;53.194;6.132;2023-08-06T11:57:57;2.20;;;1.30;;
76566;SDS011;65428;53.194;6.132;2023-08-06T12:00:23;3.37;;;1.53;;
76566;SDS011;65428;53.194;6.132;2023-08-06T12:02:50;2.15;;;1.23;;
76566;SDS011;65428;53.194;6.132;2023-08-06T12:05:23;1.95;;;0.93;;
76566;SDS011;65428;53.194;6.132;2023-08-06T12:07:58;2.17;;;1.10;;
76566;SDS011;65428;53.194;6.132;2023-08-06T12:10:25;3.10;;;1.10;;
76566;SDS011;65428;53.194;6.132;2023-08-06T12:12:52;2.28;;;0.88;;
76566;SDS011;65428;53.194;6.132;2023-08-06T12:15:18;2.13;;;0.93;;
76566;SDS011;65428;53.194;6.132;2023-08-06T12:17:44;2.27;;;0.80;;
76566;SDS011;65428;53.194;6.132;2023-08-06T12:20:10;2.22;;;0.80;;
76566;SDS011;65428;53.194;6.132;2023-08-06T12:22:36;2.20;;;0.97;;
76566;SDS011;65428;53.194;6.132;2023-08-06T12:25:05;2.03;;;0.80;;
76566;SDS011;65428;53.194;6.132;2023-08-06T12:27:33;2.17;;;1.00;;
76566;SDS011;65428;53.194;6.132;2023-08-06T12:30:03;1.77;;;1.00;;
76566;SDS011;65428;53.194;6.132;2023-08-06T12:32:30;2.13;;;1.00;;
76566;SDS011;65428;53.194;6.132;2023-08-06T12:34:55;2.42;;;0.90;;
76566;SDS011;65428;53.194;6.132;2023-08-06T12:37:21;2.67;;;0.60;;
76566;SDS011;65428;53.194;6.132;2023-08-06T12:39:48;2.45;;;1.02;;
76566;SDS011;65428;53.194;6.132;2023-08-06T12:42:13;2.08;;;0.93;;
76566;SDS011;65428;53.194;6.132;2023-08-06T12:44:39;1.87;;;0.93;;
76566;SDS011;65428;53.194;6.132;2023-08-06T12:47:05;2.08;;;1.10;;
76566;SDS011;65428;53.194;6.132;2023-08-06T12:49:31;1.85;;;1.15;;
76566;SDS011;65428;53.194;6.132;2023-08-06T12:51:58;2.73;;;0.90;;
76566;SDS011;65428;53.194;6.132;2023-08-06T12:54:24;2.40;;;1.10;;
76566;SDS011;65428;53.194;6.132;2023-08-06T12:56:51;1.85;;;0.98;;
76566;SDS011;65428;53.194;6.132;2023-08-06T12:59:17;2.20;;;1.10;;
76566;SDS011;65428;53.194;6.132;2023-08-06T13:01:43;2.45;;;1.10;;
76566;SDS011;65428;53.194;6.132;2023-08-06T13:04:10;2.95;;;1.00;;
76566;SDS011;65428;53.194;6.132;2023-08-06T13:06:36;2.65;;;1.20;;
76566;SDS011;65428;53.194;6.132;2023-08-06T13:09:02;2.20;;;1.20;;
76566;SDS011;65428;53.194;6.132;2023-08-06T13:11:29;3.42;;;1.30;;
76566;SDS011;65428;53.194;6.132;2023-08-06T13:13:58;1.65;;;0.80;;
76566;SDS011;65428;53.194;6.132;2023-08-06T13:16:28;2.53;;;1.10;;
76566;SDS011;65428;53.194;6.132;2023-08-06T13:18:54;2.28;;;1.08;;
76566;SDS011;65428;53.194;6.132;2023-08-06T13:21:20;2.83;;;1.00;;
76566;SDS011;65428;53.194;6.132;2023-08-06T13:23:45;1.53;;;1.07;;
76566;SDS011;65428;53.194;6.132;2023-08-06T13:26:15;1.55;;;0.95;;
76566;SDS011;65428;53.194;6.132;2023-08-06T13:28:41;1.98;;;1.10;;
76566;SDS011;65428;53.194;6.132;2023-08-06T13:31:07;2.20;;;0.93;;
76566;SDS011;65428;53.194;6.132;2023-08-06T13:33:33;1.98;;;0.90;;
76566;SDS011;65428;53.194;6.132;2023-08-06T13:35:59;2.20;;;1.00;;
76566;SDS011;65428;53.194;6.132;2023-08-06T13:38:24;2.10;;;1.03;;
76566;SDS011;65428;53.194;6.132;2023-08-06T13:40:50;1.97;;;1.10;;
76566;SDS011;65428;53.194;6.132;2023-08-06T13:43:15;1.80;;;0.95;;
76566;SDS011;65428;53.194;6.132;2023-08-06T13:45:44;2.47;;;1.20;;
76566;SDS011;65428;53.194;6.132;2023-08-06T13:48:09;2.22;;;1.08;;
76566;SDS011;65428;53.194;6.132;2023-08-06T13:50:35;1.93;;;0.90;;
76566;SDS011;65428;53.194;6.132;2023-08-06T13:53:02;1.60;;;0.80;;
76566;SDS011;65428;53.194;6.132;2023-08-06T13:55:28;1.97;;;0.90;;
76566;SDS011;65428;53.194;6.132;2023-08-06T13:57:53;2.20;;;0.80;;
76566;SDS011;65428;53.194;6.132;2023-08-06T14:00:20;2.13;;;0.93;;
76566;SDS011;65428;53.194;6.132;2023-08-06T14:02:46;1.75;;;0.77;;
76566;SDS011;65428;53.194;6.132;2023-08-06T14:05:12;2.17;;;0.80;;
76566;SDS011;65428;53.194;6.132;2023-08-06T14:07:38;2.05;;;1.00;;
76566;SDS011;65428;53.194;6.132;2023-08-06T14:10:04;2.07;;;1.00;;
76566;SDS011;65428;53.194;6.132;2023-08-06T14:12:30;2.15;;;0.80;;
76566;SDS011;65428;53.194;6.132;2023-08-06T14:14:56;1.50;;;0.55;;
76566;SDS011;65428;53.194;6.132;2023-08-06T14:17:22;2.75;;;0.80;;
76566;SDS011;65428;53.194;6.132;2023-08-06T14:19:48;1.93;;;0.70;;
76566;SDS011;65428;53.194;6.132;2023-08-06T14:22:13;1.63;;;0.80;;
76566;SDS011;65428;53.194;6.132;2023-08-06T14:24:39;2.70;;;0.70;;
76566;SDS011;65428;53.194;6.132;2023-08-06T14:27:05;1.38;;;0.80;;
76566;SDS011;65428;53.194;6.132;2023-08-06T14:29:31;1.83;;;0.73;;
76566;SDS011;65428;53.194;6.132;2023-08-06T14:31:57;1.42;;;0.60;;
76566;SDS011;65428;53.194;6.132;2023-08-06T14:34:22;1.30;;;0.60;;
76566;SDS011;65428;53.194;6.132;2023-08-06T14:36:48;1.85;;;0.77;;
76566;SDS011;65428;53.194;6.132;2023-08-06T14:39:14;1.80;;;0.77;;
76566;SDS011;65428;53.194;6.132;2023-08-06T14:41:39;2.17;;;0.87;;